LFPM 201830Z AUTO 07006KT 030V100 CAVOK 17/M00 Q1019

Les avions qui composent notre flotte

Avion Robin DR400 2+2

L'avion école par excellence

F-GAVN
   * tarif promotionnel appliqué pendant la formation des élèves non brevetés


F-GAVN Planche